Time;durP1;ratioP1;P1;durP2;ratioP2;P2;SDS_P1;SDS_P2;PMS_P1;PMS_P2;Temp;Humidity;BMP_temperature;BMP_pressure;BME280_temperature;BME280_humidity;BME280_pressure;Samples;Min_cycle;Max_cycle;Signal;HPM_P1;HPM_P2
2021/05/13 00:01:04;;;;;;;14.50;4.70;;;9.10;99.90;;;;;;10289142;28;21071;-64
2021/05/13 00:06:05;;;;;;;13.20;4.28;;;9.10;99.90;;;;;;10288802;28;21271;-63
2021/05/13 00:11:08;;;;;;;16.33;4.28;;;9.00;99.90;;;;;;10288329;28;20577;-65
2021/05/13 00:16:09;;;;;;;18.65;4.72;;;9.90;99.90;;;;;;10289057;28;20205;-64
2021/05/13 00:21:10;;;;;;;16.35;5.38;;;9.00;99.90;;;;;;10286996;28;21278;-64
2021/05/13 00:26:12;;;;;;;14.77;6.60;;;8.90;99.90;;;;;;10324401;28;20053;-64
2021/05/13 00:31:13;;;;;;;13.50;5.10;;;9.10;99.90;;;;;;10321523;28;21866;-65
2021/05/13 00:36:15;;;;;;;28.35;6.80;;;8.70;99.90;;;;;;10322524;28;20122;-64
2021/05/13 00:41:17;;;;;;;23.80;7.75;;;8.60;99.90;;;;;;10325482;28;21794;-65
2021/05/13 00:46:19;;;;;;;14.25;6.88;;;8.60;99.90;;;;;;10325262;28;20079;-65
2021/05/13 00:51:20;;;;;;;23.48;7.93;;;8.60;99.90;;;;;;10323409;28;20127;-64
2021/05/13 00:56:23;;;;;;;27.13;8.20;;;8.60;99.90;;;;;;10327574;28;20060;-65
2021/05/13 01:01:25;;;;;;;24.27;6.88;;;8.60;99.90;;;;;;10326453;28;20080;-65
2021/05/13 01:06:27;;;;;;;17.83;5.97;;;8.50;99.90;;;;;;10323488;28;20194;-64
2021/05/13 01:11:30;;;;;;;15.95;5.57;;;8.40;99.90;;;;;;10319104;28;21967;-65
2021/05/13 01:16:44;;;;;;;21.88;6.18;;;8.40;99.90;;;;;;10321359;28;20057;-64
2021/05/13 01:21:46;;;;;;;21.42;6.10;;;8.40;99.90;;;;;;10322777;28;21390;-64
2021/05/13 01:26:48;;;;;;;23.23;6.57;;;8.40;99.90;;;;;;10319412;28;20082;-64
2021/05/13 01:31:50;;;;;;;18.27;6.30;;;8.30;99.90;;;;;;10326050;28;20809;-64
2021/05/13 01:36:53;;;;;;;21.07;5.43;;;8.30;99.90;;;;;;10325750;28;20056;-65
2021/05/13 01:41:54;;;;;;;22.50;6.60;;;8.20;99.90;;;;;;10322012;28;20174;-64
2021/05/13 01:46:55;;;;;;;18.02;6.65;;;8.30;99.90;;;;;;10324881;28;20782;-64
2021/05/13 01:51:57;;;;;;;20.20;6.97;;;8.30;99.90;;;;;;10321538;28;20103;-64
2021/05/13 01:57:02;;;;;;;32.83;9.48;;;8.20;99.90;;;;;;10322814;28;20092;-64
2021/05/13 02:02:06;;;;;;;25.83;8.73;;;8.30;99.90;;;;;;10322257;28;20076;-64
2021/05/13 02:07:08;;;;;;;18.75;7.80;;;8.20;99.90;;;;;;10323466;28;20136;-64
2021/05/13 02:12:10;;;;;;;25.70;7.53;;;8.20;99.90;;;;;;10323402;28;20155;-64
2021/05/13 02:17:11;;;;;;;24.77;8.35;;;8.20;99.90;;;;;;10322918;28;21312;-64
2021/05/13 02:22:13;;;;;;;26.23;8.25;;;8.20;99.90;;;;;;10322653;28;20111;-64
2021/05/13 02:27:14;;;;;;;21.42;9.50;;;8.10;99.90;;;;;;10325794;28;20052;-64
2021/05/13 02:32:16;;;;;;;34.67;10.73;;;8.20;99.90;;;;;;10321975;28;20218;-64
2021/05/13 02:37:19;;;;;;;30.00;9.85;;;8.10;99.90;;;;;;10324177;28;20773;-64
2021/05/13 02:42:20;;;;;;;27.73;10.60;;;8.10;99.90;;;;;;10323660;28;20111;-64
2021/05/13 02:47:21;;;;;;;31.70;10.68;;;8.10;99.90;;;;;;10324325;28;20187;-64
2021/05/13 02:52:24;;;;;;;30.70;10.35;;;8.10;99.90;;;;;;10321641;28;21870;-64
2021/05/13 02:57:25;;;;;;;28.58;11.20;;;8.00;99.90;;;;;;10323065;28;20112;-64
2021/05/13 03:02:26;;;;;;;39.35;14.27;;;7.90;99.90;;;;;;10323576;28;20734;-64
2021/05/13 03:07:28;;;;;;;28.92;11.93;;;7.90;99.90;;;;;;10326921;28;21248;-64
2021/05/13 03:12:30;;;;;;;38.03;13.40;;;7.90;99.90;;;;;;10330252;28;20095;-64
2021/05/13 03:17:31;;;;;;;32.33;12.60;;;7.90;99.90;;;;;;10326396;28;21338;-65
2021/05/13 03:22:33;;;;;;;31.63;12.98;;;7.80;99.90;;;;;;10328659;28;20045;-64
2021/05/13 03:27:43;;;;;;;35.53;14.88;;;7.70;99.90;;;;;;10328326;28;21366;-64
2021/05/13 03:32:44;;;;;;;35.83;15.43;;;7.60;99.90;;;;;;10328643;28;20465;-65
2021/05/13 03:37:46;;;;;;;36.70;16.75;;;7.60;99.90;;;;;;10330480;28;20177;-63
2021/05/13 03:42:47;;;;;;;41.13;16.88;;;7.60;99.90;;;;;;10327262;28;20049;-64
2021/05/13 03:47:49;;;;;;;37.58;16.70;;;7.70;99.90;;;;;;10327989;28;20060;-63
2021/05/13 03:52:51;;;;;;;35.05;15.40;;;7.60;99.90;;;;;;10327093;28;20061;-64
2021/05/13 03:57:55;;;;;;;35.67;16.73;;;7.60;99.90;;;;;;10327617;28;20056;-63
2021/05/13 04:02:56;;;;;;;44.78;17.40;;;7.50;99.90;;;;;;10325586;28;20141;-64
2021/05/13 04:07:59;;;;;;;40.25;16.25;;;7.50;99.90;;;;;;10329826;28;20150;-63
2021/05/13 04:13:03;;;;;;;39.50;16.48;;;7.50;99.90;;;;;;10326383;28;20057;-63
2021/05/13 04:18:05;;;;;;;32.67;16.92;;;7.70;99.90;;;;;;10326059;28;20045;-63
2021/05/13 04:23:07;;;;;;;42.67;16.73;;;7.90;99.90;;;;;;10325881;28;20076;-63
2021/05/13 04:28:09;;;;;;;40.37;15.20;;;8.10;99.90;;;;;;10325723;28;20076;-63
2021/05/13 04:33:12;;;;;;;30.65;14.70;;;8.50;99.90;;;;;;10327146;28;20494;-63
2021/05/13 04:38:16;;;;;;;37.47;14.85;;;9.20;99.90;;;;;;10329994;28;20055;-63
2021/05/13 04:43:18;;;;;;;29.00;15.00;;;9.70;99.90;;;;;;10330971;28;20053;-64
2021/05/13 04:48:21;;;;;;;34.67;14.53;;;10.80;99.90;;;;;;10328960;28;21092;-64
2021/05/13 04:53:24;;;;;;;27.63;12.27;;;12.70;99.90;;;;;;10328811;28;20053;-64
2021/05/13 04:58:25;;;;;;;20.10;13.27;;;13.90;99.80;;;;;;10323733;28;20263;-63
2021/05/13 05:03:27;;;;;;;20.58;13.50;;;13.30;99.30;;;;;;10308614;28;20084;-63
2021/05/13 05:08:29;;;;;;;31.80;11.82;;;13.60;99.40;;;;;;10317809;28;20073;-64
2021/05/13 05:13:30;;;;;;;35.30;12.13;;;16.30;93.80;;;;;;10321293;28;20192;-64
2021/05/13 05:18:31;;;;;;;22.38;11.27;;;18.10;86.20;;;;;;10321821;28;22291;-64
2021/05/13 05:23:34;;;;;;;19.73;11.15;;;19.00;81.30;;;;;;10320327;28;20064;-64
2021/05/13 05:28:35;;;;;;;20.52;11.15;;;20.20;82.20;;;;;;10310415;28;20057;-64
2021/05/13 05:33:36;;;;;;;26.98;11.32;;;19.90;76.40;;;;;;10314989;28;20096;-64
2021/05/13 05:38:38;;;;;;;21.40;12.52;;;21.20;69.90;;;;;;10317993;28;20055;-64
2021/05/13 05:43:40;;;;;;;22.70;13.02;;;22.00;64.80;;;;;;10316642;28;20080;-64
2021/05/13 05:48:41;;;;;;;17.63;11.05;;;22.60;61.90;;;;;;10319079;28;20131;-65
2021/05/13 05:53:43;;;;;;;19.13;9.37;;;23.40;57.60;;;;;;10314477;28;21274;-65
2021/05/13 05:58:44;;;;;;;;;;;24.10;55.00;;;;;;10312329;28;21423;-65
2021/05/13 06:03:45;;;;;;;14.55;7.97;;;24.70;52.40;;;;;;10315215;28;20033;-64
2021/05/13 06:08:47;;;;;;;18.33;7.10;;;25.30;49.30;;;;;;10313340;28;20080;-64
2021/05/13 06:13:49;;;;;;;11.15;6.25;;;26.10;47.90;;;;;;10313716;28;20485;-64
2021/05/13 06:18:55;;;;;;;7.07;6.05;;;26.90;45.30;;;;;;10307934;28;20345;-64
2021/05/13 06:24:00;;;;;;;13.60;6.55;;;27.50;44.30;;;;;;10310630;28;20049;-64
2021/05/13 06:29:01;;;;;;;12.85;6.95;;;27.70;42.50;;;;;;10314448;28;20187;-65
2021/05/13 06:34:03;;;;;;;11.80;7.05;;;28.20;41.30;;;;;;10311099;28;20409;-65
2021/05/13 06:39:05;;;;;;;;;;;28.70;40.20;;;;;;10321274;28;21380;-65
2021/05/13 06:44:07;;;;;;;10.55;6.78;;;28.70;39.60;;;;;;10314763;28;19963;-64
2021/05/13 06:49:08;;;;;;;;;;;29.90;38.80;;;;;;10319527;28;20072;-64
2021/05/13 06:54:10;;;;;;;12.90;7.57;;;30.30;37.60;;;;;;10323469;28;20124;-64
2021/05/13 06:59:11;;;;;;;14.07;7.13;;;30.40;36.50;;;;;;10323653;28;21327;-66
2021/05/13 07:04:13;;;;;;;10.70;6.60;;;30.60;36.20;;;;;;10322595;28;20080;-64
2021/05/13 07:09:15;;;;;;;13.23;7.93;;;31.00;35.70;;;;;;10325526;28;20071;-64
2021/05/13 07:14:16;;;;;;;10.20;7.18;;;31.40;34.80;;;;;;10323484;28;20138;-64
2021/05/13 07:19:18;;;;;;;14.07;8.32;;;31.70;34.10;;;;;;10322924;28;20091;-64
2021/05/13 07:24:20;;;;;;;11.98;9.05;;;32.10;33.30;;;;;;10326496;28;20064;-66
2021/05/13 07:29:22;;;;;;;14.38;9.18;;;32.30;32.80;;;;;;10370112;28;20053;-64
2021/05/13 07:34:23;;;;;;;19.08;9.52;;;32.10;32.70;;;;;;10404231;28;20046;-64
2021/05/13 07:39:25;;;;;;;15.15;9.50;;;32.70;31.90;;;;;;10417794;28;20144;-64
2021/05/13 07:44:27;;;;;;;13.93;7.65;;;32.80;31.80;;;;;;10404629;28;20057;-63
2021/05/13 07:49:28;;;;;;;14.02;7.90;;;33.00;31.70;;;;;;10417483;28;21028;-65
2021/05/13 07:54:31;;;;;;;11.10;7.45;;;33.90;31.20;;;;;;10406998;28;20049;-64
2021/05/13 07:59:32;;;;;;;13.85;6.70;;;34.00;30.80;;;;;;10430976;28;20060;-64
2021/05/13 08:04:33;;;;;;;10.93;6.38;;;34.50;30.50;;;;;;10427827;28;20045;-64
2021/05/13 08:09:35;;;;;;;10.45;5.93;;;34.90;30.30;;;;;;10437880;28;20515;-64
2021/05/13 08:14:36;;;;;;;9.80;5.70;;;35.50;30.00;;;;;;10433352;28;20083;-63
2021/05/13 08:19:38;;;;;;;7.75;5.25;;;35.40;29.30;;;;;;10427473;28;20529;-63
2021/05/13 08:24:40;;;;;;;10.32;6.13;;;34.60;29.30;;;;;;10425010;28;20121;-64
2021/05/13 08:29:41;;;;;;;16.20;5.93;;;34.40;29.30;;;;;;10425287;28;20940;-64
2021/05/13 08:34:42;;;;;;;10.95;5.30;;;34.60;29.30;;;;;;10411946;28;20479;-64
2021/05/13 08:39:44;;;;;;;5.72;4.88;;;34.50;29.20;;;;;;10426085;28;20053;-64
2021/05/13 08:44:47;;;;;;;8.98;4.57;;;34.50;28.50;;;;;;10434702;28;20114;-65
2021/05/13 08:49:48;;;;;;;13.32;5.35;;;34.30;29.10;;;;;;10431856;28;20138;-63
2021/05/13 08:54:51;;;;;;;10.15;4.93;;;32.60;29.60;;;;;;10421986;28;20061;-65
2021/05/13 08:59:53;;;;;;;7.85;3.80;;;30.50;31.80;;;;;;10421673;28;20053;-64
2021/05/13 09:04:57;;;;;;;6.78;3.85;;;28.90;32.80;;;;;;10436106;28;20088;-64
2021/05/13 09:10:05;;;;;;;11.55;4.25;;;28.00;33.10;;;;;;10433982;28;20099;-64
2021/05/13 09:15:10;;;;;;;9.85;4.18;;;27.90;33.00;;;;;;10431701;28;20071;-63
2021/05/13 09:20:23;;;;;;;10.98;5.05;;;28.00;32.40;;;;;;10411906;28;20057;-64
2021/05/13 09:25:26;;;;;;;8.93;3.45;;;27.90;33.20;;;;;;10424521;28;20049;-63
2021/05/13 09:30:29;;;;;;;16.48;3.92;;;27.90;32.70;;;;;;10435041;28;20131;-64
2021/05/13 09:35:32;;;;;;;6.03;3.15;;;28.20;32.50;;;;;;10435192;28;20368;-64
2021/05/13 09:40:36;;;;;;;7.30;2.78;;;28.20;32.10;;;;;;10418581;28;20045;-64
2021/05/13 09:45:46;;;;;;;16.42;3.65;;;28.70;31.50;;;;;;10414728;28;20528;-62
2021/05/13 09:50:49;;;;;;;16.95;3.83;;;29.70;30.50;;;;;;10426151;28;20045;-63
2021/05/13 09:55:51;;;;;;;14.60;3.47;;;29.30;30.10;;;;;;10434501;28;20064;-64
2021/05/13 10:00:53;;;;;;;11.32;3.03;;;29.90;30.20;;;;;;10445935;28;20155;-63
2021/05/13 10:05:54;;;;;;;20.23;3.58;;;30.30;30.00;;;;;;10431775;28;20102;-64
2021/05/13 10:10:57;;;;;;;18.00;4.78;;;31.20;29.60;;;;;;10418886;28;20049;-64
2021/05/13 10:16:00;;;;;;;15.65;3.85;;;30.80;29.80;;;;;;10428978;28;20057;-63
2021/05/13 10:21:05;;;;;;;13.32;3.90;;;30.50;29.60;;;;;;10429036;28;20049;-64
2021/05/13 10:26:07;;;;;;;7.10;3.10;;;30.00;30.20;;;;;;10422766;28;20072;-64
2021/05/13 10:31:09;;;;;;;10.73;3.53;;;29.90;30.20;;;;;;10427511;28;20133;-68
2021/05/13 10:36:15;;;;;;;8.30;3.45;;;30.50;29.90;;;;;;10427997;28;20050;-62
2021/05/13 10:41:37;;;;;;;7.53;4.10;;;31.40;29.50;;;;;;10428877;28;20474;-62
2021/05/13 10:46:39;;;;;;;11.65;4.30;;;31.30;29.20;;;;;;10423014;28;20060;-62
2021/05/13 10:51:41;;;;;;;14.27;3.67;;;31.80;29.70;;;;;;10422638;28;20057;-61
2021/05/13 10:56:43;;;;;;;7.95;4.25;;;31.20;29.60;;;;;;10421221;28;20044;-64
2021/05/13 11:01:46;;;;;;;9.02;4.07;;;31.40;29.60;;;;;;10421189;28;20061;-63
2021/05/13 11:06:48;;;;;;;35.08;4.10;;;31.00;29.50;;;;;;10420311;28;20087;-63
2021/05/13 11:12:14;;;;;;;6.60;3.63;;;30.40;29.90;;;;;;10432088;28;20053;-64
2021/05/13 11:17:15;;;;;;;11.25;4.43;;;30.80;29.70;;;;;;10423938;28;20115;-63
2021/05/13 11:22:16;;;;;;;8.50;3.70;;;30.50;29.50;;;;;;10415918;28;20135;-63
2021/05/13 11:27:29;;;;;;;21.40;3.80;;;30.10;30.00;;;;;;10424387;28;20046;-63
2021/05/13 11:32:30;;;;;;;7.57;3.03;;;29.60;30.70;;;;;;10423359;28;20053;-63
2021/05/13 11:37:40;;;;;;;9.30;3.45;;;29.00;30.70;;;;;;10430854;28;20057;-63
2021/05/13 11:42:42;;;;;;;9.55;3.60;;;28.80;30.60;;;;;;10432123;28;20370;-63
2021/05/13 11:47:43;;;;;;;7.50;2.80;;;29.20;30.60;;;;;;10428369;28;20494;-63
2021/05/13 11:53:07;;;;;;;9.13;3.65;;;30.10;29.60;;;;;;10425946;28;20043;-64
2021/05/13 11:58:10;;;;;;;7.78;3.40;;;30.20;29.80;;;;;;10436953;28;20494;-63
2021/05/13 12:03:13;;;;;;;6.53;2.97;;;31.00;29.40;;;;;;10421235;28;20055;-64
2021/05/13 12:08:16;;;;;;;6.00;3.58;;;30.90;29.30;;;;;;10430571;28;20748;-64
2021/05/13 12:13:18;;;;;;;10.43;3.45;;;30.00;29.60;;;;;;10420488;28;20053;-64
2021/05/13 12:18:19;;;;;;;5.47;2.70;;;30.20;29.80;;;;;;10425373;28;20148;-64
2021/05/13 12:23:21;;;;;;;5.88;3.00;;;31.20;29.00;;;;;;10419015;28;20507;-64
2021/05/13 12:28:23;;;;;;;6.78;2.75;;;30.50;29.50;;;;;;10434630;28;20388;-63
2021/05/13 12:33:26;;;;;;;10.07;2.97;;;29.40;29.90;;;;;;10423343;28;20076;-63
2021/05/13 12:38:27;;;;;;;6.07;2.75;;;28.80;30.20;;;;;;10432340;28;20401;-64
2021/05/13 12:43:29;;;;;;;6.15;2.65;;;29.10;30.40;;;;;;10424805;28;20504;-63
2021/05/13 12:48:31;;;;;;;8.70;3.40;;;29.90;29.70;;;;;;10414754;28;20059;-64
2021/05/13 12:53:32;;;;;;;8.38;2.58;;;29.70;29.80;;;;;;10442617;28;20091;-62
2021/05/13 12:58:36;;;;;;;7.50;3.10;;;29.70;30.00;;;;;;10425170;28;20419;-62
2021/05/13 13:03:40;;;;;;;7.30;2.85;;;30.10;29.90;;;;;;10429777;28;20413;-61
2021/05/13 13:08:44;;;;;;;8.07;2.78;;;29.80;31.50;;;;;;10420900;28;20056;-62
2021/05/13 13:13:48;;;;;;;8.75;3.00;;;29.40;31.20;;;;;;10412309;28;20049;-63
2021/05/13 13:18:49;;;;;;;11.23;3.20;;;30.00;29.70;;;;;;10430219;28;20053;-63
2021/05/13 13:23:50;;;;;;;7.13;2.85;;;29.70;29.80;;;;;;10431452;28;20148;-62
2021/05/13 13:28:52;;;;;;;6.72;2.83;;;29.20;29.50;;;;;;10425599;28;20053;-64
2021/05/13 13:33:56;;;;;;;13.77;3.15;;;28.10;30.30;;;;;;10427449;28;20106;-63
2021/05/13 13:38:57;;;;;;;11.75;2.50;;;27.10;34.90;;;;;;10424809;28;20053;-63
2021/05/13 13:44:00;;;;;;;7.80;2.53;;;26.40;35.40;;;;;;10419369;28;20050;-64
2021/05/13 13:49:02;;;;;;;7.50;2.28;;;26.10;36.10;;;;;;10428039;28;20152;-63
2021/05/13 13:54:04;;;;;;;9.40;2.20;;;25.70;36.50;;;;;;10431201;28;20051;-63
2021/05/13 13:59:06;;;;;;;7.63;2.72;;;25.10;38.10;;;;;;10423327;28;20639;-62
2021/05/13 14:04:07;;;;;;;7.57;2.58;;;25.00;38.80;;;;;;10425612;28;20060;-62
2021/05/13 14:09:08;;;;;;;8.73;2.80;;;25.10;38.60;;;;;;10425896;28;20049;-62
2021/05/13 14:14:10;;;;;;;6.47;2.40;;;25.00;38.60;;;;;;10430093;28;20041;-61
2021/05/13 14:19:13;;;;;;;6.47;2.17;;;24.70;39.00;;;;;;10431697;28;20049;-63
2021/05/13 14:24:14;;;;;;;8.20;2.42;;;24.60;39.40;;;;;;10428262;28;20069;-62
2021/05/13 14:29:17;;;;;;;8.55;3.00;;;24.70;39.90;;;;;;10423030;28;20049;-63
2021/05/13 14:34:18;;;;;;;11.48;2.90;;;24.50;40.10;;;;;;10429637;28;20041;-62
2021/05/13 14:39:19;;;;;;;11.45;3.35;;;24.30;40.70;;;;;;10418472;28;20532;-62
2021/05/13 14:44:21;;;;;;;;;;;24.30;40.70;;;;;;10428194;28;20055;-62
2021/05/13 14:49:25;;;;;;;;;;;23.90;41.10;;;;;;10423124;28;19935;-62
2021/05/13 14:54:27;;;;;;;6.45;3.10;;;23.30;42.60;;;;;;10422303;28;19921;-62
2021/05/13 14:59:29;;;;;;;;;;;22.60;43.60;;;;;;10424997;28;20092;-63
2021/05/13 15:04:31;;;;;;;10.63;2.75;;;21.90;45.90;;;;;;10441192;28;19924;-63
2021/05/13 15:09:32;;;;;;;7.25;2.65;;;21.70;47.20;;;;;;10435240;28;20049;-62
2021/05/13 15:14:35;;;;;;;15.17;3.53;;;21.40;48.70;;;;;;10425513;28;20519;-63
2021/05/13 15:19:37;;;;;;;13.30;3.53;;;21.00;50.00;;;;;;10428625;28;20056;-62
2021/05/13 15:24:40;;;;;;;12.20;3.30;;;20.70;50.80;;;;;;10432048;28;20044;-63
2021/05/13 15:29:42;;;;;;;9.90;2.70;;;20.30;51.80;;;;;;10439706;28;20137;-63
2021/05/13 15:34:43;;;;;;;;;;;19.90;53.00;;;;;;10438923;28;20485;-63
2021/05/13 15:39:44;;;;;;;10.48;2.80;;;19.80;54.40;;;;;;10428040;28;20016;-62
2021/05/13 15:44:46;;;;;;;11.53;2.93;;;19.40;55.30;;;;;;10425470;28;20053;-63
2021/05/13 15:49:48;;;;;;;16.23;3.22;;;19.20;56.60;;;;;;10432908;28;20078;-63
2021/05/13 15:54:50;;;;;;;23.50;11.20;;;18.80;64.10;;;;;;10432176;28;20060;-64
2021/05/13 15:59:53;;;;;;;31.85;11.52;;;18.10;73.40;;;;;;10433685;28;20060;-62
2021/05/13 16:04:54;;;;;;;54.15;13.13;;;16.40;91.80;;;;;;10435029;28;20449;-63
2021/05/13 16:09:56;;;;;;;70.45;10.52;;;14.90;98.80;;;;;;10432676;28;20187;-65
2021/05/13 16:14:58;;;;;;;0.57;0.57;;;13.80;99.90;;;;;;10429115;28;20218;-65
2021/05/13 16:20:00;;;;;;;33.17;9.27;;;13.10;99.90;;;;;;10418435;28;20521;-63
2021/05/13 16:25:01;;;;;;;48.38;9.75;;;12.90;99.90;;;;;;10428828;28;20056;-64
2021/05/13 16:30:04;;;;;;;48.67;9.63;;;12.80;99.90;;;;;;10420902;28;20067;-64
2021/05/13 16:35:07;;;;;;;39.33;8.10;;;12.70;99.90;;;;;;10430506;28;20456;-63
2021/05/13 16:40:09;;;;;;;32.38;9.00;;;12.60;99.90;;;;;;10434040;28;20097;-64
2021/05/13 16:45:13;;;;;;;28.00;8.32;;;12.40;99.90;;;;;;10431703;28;20413;-64
2021/05/13 16:50:15;;;;;;;0.10;0.10;;;12.50;99.90;;;;;;10420862;28;20608;-64
2021/05/13 16:55:16;;;;;;;0.10;0.10;;;12.40;99.90;;;;;;10429107;28;20143;-65
2021/05/13 17:00:19;;;;;;;0.10;0.10;;;12.30;99.90;;;;;;10429255;28;20057;-65
2021/05/13 17:05:23;;;;;;;37.17;6.97;;;12.20;99.90;;;;;;10436016;28;20793;-64
2021/05/13 17:10:25;;;;;;;34.17;8.95;;;12.20;99.90;;;;;;10428193;28;20072;-63
2021/05/13 17:15:27;;;;;;;44.13;7.57;;;12.20;99.90;;;;;;10426891;28;20053;-64
2021/05/13 17:20:28;;;;;;;72.07;8.20;;;12.10;99.90;;;;;;10429250;28;20055;-65
2021/05/13 17:25:30;;;;;;;0.35;0.35;;;12.00;99.90;;;;;;10424372;28;20131;-64
2021/05/13 17:30:32;;;;;;;0.47;0.47;;;12.00;99.90;;;;;;10429133;28;20049;-65
2021/05/13 17:35:34;;;;;;;0.10;0.10;;;12.00;99.90;;;;;;10429956;28;20401;-64
2021/05/13 17:40:35;;;;;;;0.10;0.10;;;12.00;99.90;;;;;;10422898;28;20080;-65
2021/05/13 17:45:37;;;;;;;0.20;0.20;;;11.90;99.90;;;;;;10419346;28;20116;-66
2021/05/13 17:50:40;;;;;;;0.10;0.10;;;11.90;99.90;;;;;;10406081;28;20167;-64
2021/05/13 17:55:41;;;;;;;52.15;5.50;;;11.90;99.90;;;;;;10435915;28;20499;-64
2021/05/13 18:00:43;;;;;;;235.07;20.00;;;12.00;99.90;;;;;;10435270;28;20056;-63
2021/05/13 18:05:46;;;;;;;151.38;12.13;;;12.00;99.90;;;;;;10426358;28;20114;-64
2021/05/13 18:10:48;;;;;;;57.30;6.45;;;12.10;99.90;;;;;;10429532;28;20053;-64
2021/05/13 18:15:50;;;;;;;149.90;14.82;;;12.30;99.90;;;;;;10426284;28;20059;-65
2021/05/13 18:20:58;;;;;;;240.67;26.03;;;12.40;99.90;;;;;;10437129;28;20056;-65
2021/05/13 18:26:00;;;;;;;195.85;20.70;;;12.60;99.90;;;;;;10429615;28;20049;-64
2021/05/13 18:31:04;;;;;;;22.10;8.02;;;12.50;99.90;;;;;;10419063;28;20080;-64
2021/05/13 18:36:08;;;;;;;52.92;12.50;;;12.60;99.90;;;;;;10439037;28;20053;-64
2021/05/13 18:41:09;;;;;;;368.70;40.67;;;12.60;99.90;;;;;;10440066;28;20045;-63
2021/05/13 18:46:12;;;;;;;44.42;11.48;;;12.50;99.90;;;;;;10432766;28;20045;-64
2021/05/13 18:51:14;;;;;;;44.85;11.65;;;12.40;99.90;;;;;;10429710;28;20489;-65
2021/05/13 18:56:20;;;;;;;41.58;14.25;;;12.40;99.90;;;;;;10427824;28;20127;-64
2021/05/13 19:01:22;;;;;;;38.47;13.25;;;12.40;99.90;;;;;;10419531;28;20061;-64
2021/05/13 19:06:23;;;;;;;56.17;15.47;;;12.40;99.90;;;;;;10431055;28;20057;-63
2021/05/13 19:11:24;;;;;;;53.53;14.60;;;12.30;99.90;;;;;;10428672;28;20049;-62
2021/05/13 19:16:27;;;;;;;36.13;14.35;;;12.40;99.90;;;;;;10435339;28;20063;-62
2021/05/13 19:21:28;;;;;;;44.47;13.52;;;12.50;99.90;;;;;;10440458;28;20045;-62
2021/05/13 19:26:29;;;;;;;31.83;11.80;;;12.40;99.90;;;;;;10439900;28;20053;-62
2021/05/13 19:31:36;;;;;;;31.08;10.70;;;12.40;99.90;;;;;;10428537;28;20386;-62
2021/05/13 19:36:38;;;;;;;27.60;12.50;;;12.30;99.90;;;;;;10422629;28;20049;-63
2021/05/13 19:41:39;;;;;;;46.10;15.07;;;12.20;99.90;;;;;;10432571;28;20049;-63
2021/05/13 19:46:41;;;;;;;158.77;25.95;;;12.00;99.90;;;;;;10432532;28;20061;-62
2021/05/13 19:51:42;;;;;;;94.00;18.63;;;12.10;99.90;;;;;;10430356;28;20056;-62
2021/05/13 19:56:43;;;;;;;49.95;17.33;;;12.20;99.90;;;;;;10434360;28;20076;-62
2021/05/13 20:01:46;;;;;;;179.85;29.02;;;12.30;99.90;;;;;;10431333;28;20045;-61
2021/05/13 20:06:58;;;;;;;136.85;25.80;;;12.20;99.90;;;;;;10422773;28;20049;-62
2021/05/13 20:12:07;;;;;;;148.20;27.42;;;12.20;99.90;;;;;;10426586;28;20056;-62
2021/05/13 20:17:10;;;;;;;255.82;33.72;;;12.10;99.90;;;;;;10425235;28;20044;-63
2021/05/13 20:22:14;;;;;;;282.60;34.63;;;12.10;99.90;;;;;;10427312;28;20045;-62
2021/05/13 20:27:18;;;;;;;237.05;33.20;;;12.00;99.90;;;;;;10429914;28;20139;-61
2021/05/13 20:32:22;;;;;;;299.50;39.83;;;12.10;99.90;;;;;;10431816;28;20121;-64
2021/05/13 20:37:23;;;;;;;109.43;22.95;;;12.10;99.90;;;;;;10421436;28;20136;-62
2021/05/13 20:42:25;;;;;;;124.82;24.08;;;12.10;99.90;;;;;;10418078;28;20063;-62
2021/05/13 20:47:29;;;;;;;154.70;28.00;;;12.10;99.90;;;;;;10423814;28;20056;-63
2021/05/13 20:58:05;;;;;;;146.95;29.00;;;11.90;99.90;;;;;;10412976;28;20060;-62
2021/05/13 21:03:07;;;;;;;140.15;28.80;;;12.00;99.90;;;;;;10422224;28;20709;-62
2021/05/13 21:08:16;;;;;;;164.13;31.43;;;12.00;99.90;;;;;;10425303;28;20063;-62
2021/05/13 21:13:30;;;;;;;219.18;38.80;;;12.00;99.90;;;;;;10415516;28;20103;-62
2021/05/13 21:24:38;;;;;;;193.18;36.45;;;11.80;99.90;;;;;;10416903;28;20053;-62
2021/05/13 21:29:39;;;;;;;234.23;40.92;;;11.80;99.90;;;;;;10414032;28;20057;-61
2021/05/13 21:34:41;;;;;;;313.85;44.85;;;11.80;99.90;;;;;;10418849;28;20144;-61
2021/05/13 21:39:43;;;;;;;280.13;42.40;;;11.70;99.90;;;;;;10420153;28;20045;-62
2021/05/13 21:44:46;;;;;;;290.63;42.55;;;11.80;99.90;;;;;;10415428;28;20049;-62
2021/05/13 21:49:49;;;;;;;287.90;43.88;;;11.80;99.90;;;;;;10418688;28;20052;-62
2021/05/13 21:54:51;;;;;;;252.57;41.83;;;11.70;99.90;;;;;;10420495;28;20081;-62
2021/05/13 22:00:00;;;;;;;254.27;43.58;;;11.70;99.90;;;;;;10417968;28;20045;-62
2021/05/13 22:05:03;;;;;;;257.38;42.85;;;11.50;99.90;;;;;;10416182;28;20064;-62
2021/05/13 22:10:07;;;;;;;265.52;46.38;;;11.50;99.90;;;;;;10416273;28;20094;-62
2021/05/13 22:15:09;;;;;;;286.65;48.05;;;11.50;99.90;;;;;;10418761;28;20052;-61
2021/05/13 22:20:13;;;;;;;329.42;48.75;;;11.50;99.90;;;;;;10418996;28;20507;-61
2021/05/13 22:25:22;;;;;;;356.35;53.10;;;11.40;99.90;;;;;;10413632;28;20398;-62
2021/05/13 22:30:24;;;;;;;265.30;47.63;;;11.40;99.90;;;;;;10415995;28;20046;-62
2021/05/13 22:35:27;;;;;;;184.77;42.95;;;11.20;99.90;;;;;;10413912;28;20599;-61
2021/05/13 22:40:28;;;;;;;211.30;42.70;;;11.00;99.90;;;;;;10414847;28;20064;-61
2021/05/13 22:45:30;;;;;;;206.32;40.45;;;10.90;99.90;;;;;;10410905;28;20047;-61
2021/05/13 22:50:32;;;;;;;214.65;39.80;;;10.90;99.90;;;;;;10411115;28;20485;-62
2021/05/13 22:55:37;;;;;;;251.27;47.20;;;11.10;99.90;;;;;;10414828;28;20132;-60
2021/05/13 23:00:39;;;;;;;238.07;43.78;;;11.20;99.90;;;;;;10413458;28;20048;-60
2021/05/13 23:05:41;;;;;;;168.30;44.50;;;11.00;99.90;;;;;;10411132;28;20120;-61
2021/05/13 23:10:43;;;;;;;237.37;41.73;;;10.80;99.90;;;;;;10423757;28;20463;-60
2021/05/13 23:15:44;;;;;;;190.00;46.13;;;10.70;99.90;;;;;;10429367;28;20049;-60
2021/05/13 23:20:47;;;;;;;195.00;42.08;;;10.70;99.90;;;;;;10424995;28;20110;-61
2021/05/13 23:25:48;;;;;;;223.13;41.70;;;10.70;99.90;;;;;;10425341;28;20052;-60
2021/05/13 23:30:49;;;;;;;205.82;39.33;;;10.70;99.90;;;;;;10440247;28;20442;-61
2021/05/13 23:35:52;;;;;;;308.35;43.38;;;10.60;99.90;;;;;;10433646;28;20054;-61
2021/05/13 23:40:53;;;;;;;269.27;43.33;;;10.50;99.90;;;;;;10442832;28;20052;-61
2021/05/13 23:45:54;;;;;;;192.32;41.38;;;10.50;99.90;;;;;;10432743;28;20045;-61
2021/05/13 23:50:57;;;;;;;280.80;45.17;;;10.40;99.90;;;;;;10435707;28;20060;-62
2021/05/13 23:55:58;;;;;;;221.55;40.80;;;10.40;99.90;;;;;;10418269;28;20049;-62
